Mayo Airport
CYMA : now visible

Airfield :











YOU CAN JOIN US ON...

 
LOGIN :

Register | Disclaimer

   EN    FR    IT 

 









Legend :    VFR   Marginal VFR   IFR   Intensive IFR   Very Intensive IFR
Visi :
Ceiling :
>= 8 km
>= 3000ft
5 to 8 km
1000 to 3000 ft
1500m to 5 km
500 to 1000 ft
800 to 1500m
200 to 500 ft
< 800m
< 200 ft
Symbols :   Thunderstorms  Fog  Heavy snow  Heavy precipitations  Wind > 20 kt






- Airport Elevation : 1653 ft
- IATA code : YMA


CYMA - Mayo

CURRENT METAR :
  • 101000Z 36005KT 20SM FEW075 M13/M20 A3039 RMK AC1 AC TR SLP338

EXPIRED METARs :
  • 100900Z 36007KT 20SM FEW075 M12/M19 A3037 RMK AC1 AC TR SLP330
  • 100800Z 36005KT 20SM FEW075 M10/M18 A3035 RMK AC1 SLP322

TAF TAF CYMA
Valid from the 10 at 06:00 until the 10 at 18:00 UTC


100541Z 1006/1018 VRB03KT P6SM FEW070 RMK NXT FCST BY 101200Z



MET'MAP, your aeronautical weather chart ! - Copyright ORBIFLY December 2007 - Disclaimer

ORBIFLY MET'MAP TEAM :

Programming & Development : Alexandra Zaïnal
Concept & original design : Baudouin d'Aumeries
Assistance for programming : Marc-Olivier Méhu
Technical & hardware support : Manuel Goepfert

Contact : metmap@orbifly.com




SOURCES & CREDITS :

   NOAA       Earth
Advisory